Chapel Hill, Texas
Current Conditions -  °F | °C
As of 12:41 AM on Monday 29 Dec 2014 (Local Time) from KTYR Reporting Station
Broken Clouds Broken Clouds  
Wind Chill: 33°   Ceiling: 1100
Heat Index: 33°   Visibility: 9mi
Dew Point: 30°   Wind: 3mph
Humidity: 89%   Direction: 310°NW
Pressure: 30.15"   Gusts: NA
Location:  32.3003°N, 95.1871°W
Report Text: KTYR 290641Z AUTO 31003KT 9SM BKN011 01/M01 A3015 RMK AO2 T00061011
Loading
Personal Weather Stations






























Interactive Weather Map New forecast layout! Learn more

10-Day Weather Forecast

Advertisements
Track Severe Weather on mobile